»·PEaware :: ASU5 KSAN-KSNA

ASU5 :: KSAN-KSNA

FLIGHT INFORMATION

Flight Status: Arrived
Operator:
Arizona State University
More flights by this operator :: More flights under this callsign
Pilot: Arizona State University (3812)
Aircraft: BEECH AIRCRAFT SUPER KING AIR COMMUTER
(BE20)
More flights by this aircraft type
Origin: KSAN San Diego Intl-Lindbergh
United States
Destination: KSNA John Wayne-Orange Co
United States
More flights between these airports :: More routes between these airports
Route: +KSAN PEBLE6 SLI KSNA
File this flight plan on PilotEdge
Remarks: Callsign SunDevil 5. * Request ILS RWY20R at KSNA* Wx is 300 / 2
Altitude:
(Current/Filed)
8,000ft
Speed:
(Current/Filed)
240kts
Departed: 02-Dec-19 12:26 PM
Arrived: 02-Dec-19 12:57 PM
Distance/Time
Traveled:
66nm/0:30
Distance/Time
To Go:
Arrived

Flight Plot

Page will automatically refresh every two minutes.


Map Options




Map Legend


Flown Route
Filed Route
Departure Airport
Arrival Airport
Navaid (VOR, NDB)
Fix

Horizontal Profiles

Position Reports

Time Latitude Longitude Heading Altitude Ground
Speed
02-Dec-19 12:07 32.730472 -117.190308 294 19ft 3kts
02-Dec-19 12:08 32.730472 -117.190308 294 19ft 2kts
02-Dec-19 12:09 32.730472 -117.190308 294 19ft 2kts
02-Dec-19 12:10 32.730472 -117.190308 294 19ft 2kts
02-Dec-19 12:11 32.730472 -117.190308 294 19ft 2kts
02-Dec-19 12:12 32.730472 -117.190308 294 19ft 2kts
02-Dec-19 12:13 32.730472 -117.190308 294 19ft 3kts
02-Dec-19 12:14 32.730472 -117.190308 294 19ft 2kts
02-Dec-19 12:15 32.730472 -117.190308 294 19ft 2kts
02-Dec-19 12:16 32.730472 -117.190308 294 19ft 2kts
02-Dec-19 12:17 32.730472 -117.190308 294 19ft 2kts
02-Dec-19 12:18 32.730472 -117.190308 294 19ft 2kts
02-Dec-19 12:19 32.730472 -117.190308 294 19ft 3kts
02-Dec-19 12:20 32.730472 -117.190308 294 19ft 2kts
02-Dec-19 12:21 32.732550 -117.190457 54 19ft 9kts
02-Dec-19 12:22 32.731238 -117.183805 105 19ft 28kts
02-Dec-19 12:23 32.729643 -117.176452 71 19ft 3kts
02-Dec-19 12:24 32.729663 -117.176387 68 19ft 6kts
02-Dec-19 12:25 32.732095 -117.183503 285 21ft 106kts
02-Dec-19 12:26 32.748565 -117.228267 301 2206ft 168kts
02-Dec-19 12:27 32.777382 -117.273007 305 4521ft 171kts
02-Dec-19 12:28 32.806927 -117.319952 305 6547ft 178kts
02-Dec-19 12:29 32.837922 -117.368490 305 7996ft 197kts
02-Dec-19 12:30 32.873671 -117.425224 306 8042ft 222kts
02-Dec-19 12:31 32.924563 -117.468608 328 8086ft 223kts
02-Dec-19 12:32 32.972999 -117.518721 314 7999ft 228kts
02-Dec-19 12:33 33.015177 -117.576686 304 8039ft 225kts
02-Dec-19 12:34 33.053676 -117.637820 305 7996ft 227kts
02-Dec-19 12:35 33.093168 -117.698138 307 7935ft 231kts
02-Dec-19 12:36 33.134140 -117.757544 304 7925ft 231kts
02-Dec-19 12:37 33.172100 -117.819089 310 7959ft 229kts
02-Dec-19 12:38 33.230248 -117.850701 338 8076ft 224kts
02-Dec-19 12:39 33.291596 -117.875058 343 7973ft 231kts
02-Dec-19 12:40 33.354931 -117.865027 10 8073ft 225kts
02-Dec-19 12:41 33.418764 -117.849958 10 8021ft 229kts
02-Dec-19 12:42 33.482346 -117.832230 15 8020ft 227kts
02-Dec-19 12:43 33.545543 -117.815865 8 7993ft 230kts
02-Dec-19 12:44 33.609119 -117.800065 14 8069ft 228kts
02-Dec-19 12:45 33.670830 -117.773869 23 6803ft 227kts
02-Dec-19 12:46 33.729320 -117.744309 23 6023ft 215kts
02-Dec-19 12:47 33.785194 -117.714947 18 6018ft 213kts
02-Dec-19 12:48 33.843337 -117.690026 20 4833ft 229kts
02-Dec-19 12:49 33.886060 -117.705568 238 4039ft 199kts
02-Dec-19 12:50 33.851766 -117.754248 213 3648ft 170kts
02-Dec-19 12:51 33.813896 -117.782697 206 2554ft 153kts
02-Dec-19 12:52 33.775918 -117.806446 206 2116ft 126kts
02-Dec-19 12:53 33.742417 -117.826035 202 1363ft 130kts
02-Dec-19 12:54 33.711190 -117.846621 207 708ft 125kts
02-Dec-19 12:55 33.681189 -117.865341 208 75ft 111kts
02-Dec-19 12:56 33.675709 -117.869676 299 60ft 4kts
02-Dec-19 12:57 33.676834 -117.870146 300 60ft 17kts

Navigation Log

Ident Type
Flight plan parsing failed, navigation log unavailable